Gilbertsville, Kentucky
Current Conditions -  °F | °C
As of 4:35 PM on Friday 24 Oct 2014 (Local Time) from KM25 Reporting Station
Clear Clear  
Wind Chill: 70°   Ceiling: Unl
Heat Index: 70°   Visibility: 10mi
Dew Point: 54°   Wind: 5mph
Humidity: 56%   Direction: 280°W
Pressure: 30.07"   Gusts: NA
Location:  37.02°N, 88.3°W
Report Text: KM25 242135Z AUTO 28004KT 10SM CLR 21/12 A3007 RMK AO2
Loading
Personal Weather Stations






























Interactive Weather Map
Tropical Storm Tracking
New forecast layout! Learn more

10-Day Weather Forecast

Advertisements
Track Severe Weather on mobile